Time;durP1;ratioP1;P1;durP2;ratioP2;P2;SDS_P1;SDS_P2;PMS_P1;PMS_P2;Temp;Humidity;BMP_temperature;BMP_pressure;BME280_temperature;BME280_humidity;BME280_pressure;Samples;Min_cycle;Max_cycle;Signal;HPM_P1;HPM_P2
2021/11/17 02:27:54;;;;;;;;;;;;;;;9.04;60.38;100613.97;4390555;32;34032;-86
2021/11/17 02:30:27;;;;;;;;;;;;;;;8.94;60.66;100611.56;4367820;32;33421;-85
2021/11/17 02:32:55;;;;;;;;;;;;;;;8.66;61.14;100607.84;4379426;32;34060;-87
2021/11/17 02:35:35;;;;;;;;;;;;;;;8.89;60.39;100604.69;4378188;32;33008;-87
2021/11/17 02:38:21;;;;;;;;;;;;;;;9.22;59.59;100606.50;4379302;32;32889;-87
2021/11/17 02:45:10;;;;;;;;;;;;;;;9.06;60.02;100601.62;4379496;32;34880;-86
2021/11/17 02:47:56;;;;;;;;;;;;;;;9.11;59.67;100591.84;4390707;32;35026;-85
2021/11/17 02:50:23;;;;;;;;;;;;;;;9.18;59.71;100593.44;4402951;32;33055;-86
2021/11/17 02:53:03;;;;;;;;;;;;;;;8.54;61.78;100593.19;4390702;32;33298;-85
2021/11/17 02:55:48;;;;;;;;;;;;;;;9.20;59.65;100588.97;4390538;32;33388;-86
2021/11/17 02:58:16;;;;;;;;;;;;;;;8.70;60.62;100583.19;4390290;32;34296;-86
2021/11/17 03:00:55;;;;;;;;;;;;;;;8.55;61.26;100580.91;4390455;32;33542;-86
2021/11/17 03:03:29;;;;;;;;;;;;;;;8.89;60.28;100584.47;4378022;32;31979;-86
2021/11/17 03:06:02;;;;;;;;;;;;;;;8.69;60.72;100582.31;4390646;32;33779;-86
2021/11/17 03:08:39;;;;;;;;;;;;;;;8.98;60.00;100584.25;4390472;32;34054;-87
2021/11/17 03:11:12;;;;;;;;;;;;;;;8.96;59.57;100579.91;4390540;32;32669;-87
2021/11/17 03:13:59;;;;;;;;;;;;;;;8.92;60.02;100579.13;4390416;32;32399;-86
2021/11/17 03:16:48;;;;;;;;;;;;;;;8.69;60.52;100581.47;4390425;32;33391;-85
2021/11/17 03:19:25;;;;;;;;;;;;;;;8.95;59.69;100572.91;4390044;32;34149;-85
2021/11/17 03:21:55;;;;;;;;;;;;;;;9.13;59.36;100571.59;4390346;32;32905;-85
2021/11/17 03:24:23;;;;;;;;;;;;;;;8.90;59.92;100565.13;4379025;32;33478;-87
2021/11/17 03:26:59;;;;;;;;;;;;;;;8.54;60.78;100581.78;4377644;32;32969;-87
2021/11/17 03:29:56;;;;;;;;;;;;;;;8.82;60.18;100571.47;4390254;32;32850;-87
2021/11/17 03:32:30;;;;;;;;;;;;;;;8.65;60.89;100580.66;4386011;32;33890;-87
2021/11/17 03:35:07;;;;;;;;;;;;;;;8.44;62.07;100582.00;4390156;32;32008;-87
2021/11/17 03:37:40;;;;;;;;;;;;;;;9.10;59.92;100571.66;4390951;32;33879;-87
2021/11/17 03:40:17;;;;;;;;;;;;;;;8.83;60.71;100582.00;4392743;32;34457;-87
2021/11/17 03:42:47;;;;;;;;;;;;;;;8.75;61.04;100572.56;4392734;32;34326;-87
2021/11/17 03:45:33;;;;;;;;;;;;;;;8.64;61.30;100573.69;4392840;32;32522;-86
2021/11/17 03:48:01;;;;;;;;;;;;;;;8.44;62.21;100573.25;4379964;32;33622;-88
2021/11/17 03:50:47;;;;;;;;;;;;;;;8.38;62.41;100576.88;4385902;32;33626;-88
2021/11/17 03:53:14;;;;;;;;;;;;;;;8.39;62.75;100575.97;4384063;32;33248;-87
2021/11/17 03:55:42;;;;;;;;;;;;;;;8.58;62.24;100578.19;4386944;32;32475;-88
2021/11/17 03:58:28;;;;;;;;;;;;;;;8.88;61.28;100577.50;4390281;32;33434;-88
2021/11/17 04:01:14;;;;;;;;;;;;;;;8.97;61.14;100574.62;4404661;32;33046;-87
2021/11/17 04:03:52;;;;;;;;;;;;;;;8.53;62.68;100582.69;4392480;32;34381;-88
2021/11/17 04:06:21;;;;;;;;;;;;;;;8.38;63.67;100579.53;4404421;32;32039;-88
2021/11/17 04:08:49;;;;;;;;;;;;;;;8.62;62.76;100579.84;4392376;32;32929;-89
2021/11/17 04:11:34;;;;;;;;;;;;;;;8.46;63.85;100580.22;4391211;32;33046;-90
2021/11/17 04:14:02;;;;;;;;;;;;;;;8.63;63.46;100581.59;4392248;32;34192;-89
2021/11/17 04:16:56;;;;;;;;;;;;;;;8.94;62.55;100581.72;4391647;32;33196;-88
2021/11/17 04:19:47;;;;;;;;;;;;;;;9.06;62.00;100584.03;4378469;32;32743;-88
2021/11/17 04:22:15;;;;;;;;;;;;;;;8.96;62.39;100575.50;4389751;32;34685;-88
2021/11/17 04:24:55;;;;;;;;;;;;;;;8.69;63.72;100584.09;4402628;32;34017;-87
2021/11/17 04:27:23;;;;;;;;;;;;;;;8.79;62.95;100580.34;4401906;32;32973;-87
2021/11/17 04:30:10;;;;;;;;;;;;;;;8.72;63.63;100579.59;4402232;32;34130;-87
2021/11/17 04:32:57;;;;;;;;;;;;;;;8.55;64.27;100576.53;4367036;32;33351;-87
2021/11/17 04:35:29;;;;;;;;;;;;;;;8.67;63.88;100584.12;4391750;32;33798;-87
2021/11/17 04:38:04;;;;;;;;;;;;;;;8.64;63.90;100578.03;4404484;32;32906;-88
2021/11/17 04:41:04;;;;;;;;;;;;;;;8.89;63.10;100584.47;4379568;32;33432;-88
2021/11/17 04:43:31;;;;;;;;;;;;;;;8.57;63.98;100587.88;4354520;32;34135;-88
2021/11/17 04:45:59;;;;;;;;;;;;;;;8.85;62.87;100587.22;4409844;32;33305;-85
2021/11/17 04:48:26;;;;;;;;;;;;;;;8.50;63.94;100591.56;4397125;32;33336;-85
2021/11/17 04:50:57;;;;;;;;;;;;;;;8.28;65.06;100593.75;4409686;32;33041;-85
2021/11/17 04:53:37;;;;;;;;;;;;;;;8.84;63.22;100577.59;4397927;32;33707;-86
2021/11/17 04:56:11;;;;;;;;;;;;;;;8.44;64.00;100579.37;4383451;32;34091;-86
2021/11/17 04:58:49;;;;;;;;;;;;;;;8.58;63.64;100576.44;4396923;32;33029;-85
2021/11/17 05:01:20;;;;;;;;;;;;;;;8.21;65.16;100584.25;4396734;32;33124;-85
2021/11/17 05:03:50;;;;;;;;;;;;;;;8.46;64.35;100574.09;4368700;32;897962;-85
2021/11/17 05:06:23;;;;;;;;;;;;;;;8.81;62.70;100570.62;4384282;32;32806;-87
2021/11/17 05:09:14;;;;;;;;;;;;;;;8.87;62.65;100578.38;4384176;32;32179;-87
2021/11/17 05:11:51;;;;;;;;;;;;;;;8.59;63.44;100578.19;4392443;32;34116;-86
2021/11/17 05:14:43;;;;;;;;;;;;;;;8.66;63.40;100581.53;4384353;32;33521;-86
2021/11/17 05:17:32;;;;;;;;;;;;;;;8.90;62.58;100580.94;4409068;32;34600;-86
2021/11/17 05:20:11;;;;;;;;;;;;;;;8.44;63.63;100576.72;4409056;32;32217;-85
2021/11/17 05:22:48;;;;;;;;;;;;;;;8.53;63.65;100569.53;4396196;32;34139;-86
2021/11/17 05:25:16;;;;;;;;;;;;;;;8.82;62.84;100571.47;4395827;32;32971;-85
2021/11/17 05:28:02;;;;;;;;;;;;;;;8.77;62.62;100576.00;4404413;32;32681;-86
2021/11/17 05:30:36;;;;;;;;;;;;;;;8.56;63.01;100578.25;4396222;32;32390;-86
2021/11/17 05:33:27;;;;;;;;;;;;;;;8.17;64.53;100582.59;4395999;32;34501;-86
2021/11/17 05:36:01;;;;;;;;;;;;;;;8.65;62.91;100582.44;4408634;32;33360;-86
2021/11/17 05:38:37;;;;;;;;;;;;;;;8.66;62.77;100579.75;4407906;32;34186;-85
2021/11/17 05:41:26;;;;;;;;;;;;;;;8.35;63.77;100581.31;4384282;32;33150;-84
2021/11/17 05:43:56;;;;;;;;;;;;;;;8.58;62.86;100584.31;4396023;32;34706;-84
2021/11/17 05:46:31;;;;;;;;;;;;;;;8.11;64.03;100588.81;4395914;32;33900;-85
2021/11/17 05:48:58;;;;;;;;;;;;;;;8.45;63.18;100582.87;4395892;32;33952;-85
2021/11/17 05:51:41;;;;;;;;;;;;;;;8.68;62.36;100588.47;4395974;32;34105;-85
2021/11/17 05:54:18;;;;;;;;;;;;;;;8.72;62.42;100589.28;4381343;32;33746;-84
2021/11/17 05:57:08;;;;;;;;;;;;;;;8.68;62.62;100590.25;4393467;32;34122;-84
2021/11/17 05:59:36;;;;;;;;;;;;;;;8.81;61.99;100591.69;4378391;32;34844;-84
2021/11/17 06:02:25;;;;;;;;;;;;;;;9.04;61.25;100593.78;4392830;32;32401;-84
2021/11/17 06:04:56;;;;;;;;;;;;;;;8.71;62.56;100598.06;4380408;32;34371;-84
2021/11/17 06:07:23;;;;;;;;;;;;;;;8.65;62.61;100579.81;4405679;32;32915;-84
2021/11/17 06:09:51;;;;;;;;;;;;;;;8.71;62.44;100584.91;4393115;32;33868;-84
2021/11/17 06:12:18;;;;;;;;;;;;;;;8.66;62.88;100584.16;4379927;32;31880;-84
2021/11/17 06:14:46;;;;;;;;;;;;;;;8.58;63.38;100588.72;4393034;32;34158;-84
2021/11/17 06:17:15;;;;;;;;;;;;;;;8.55;63.23;100583.56;4380187;32;32927;-84
2021/11/17 06:19:43;;;;;;;;;;;;;;;8.69;62.91;100584.09;4379912;32;33208;-84
2021/11/17 06:22:11;;;;;;;;;;;;;;;8.53;63.26;100595.88;4385325;32;31919;-84
2021/11/17 06:24:38;;;;;;;;;;;;;;;8.67;62.88;100591.16;4401081;32;33524;-84
2021/11/17 06:27:06;;;;;;;;;;;;;;;8.63;63.23;100597.38;4387462;32;34279;-84
2021/11/17 06:29:35;;;;;;;;;;;;;;;8.48;63.69;100592.47;4368960;32;32924;-83
2021/11/17 06:32:02;;;;;;;;;;;;;;;8.57;63.47;100600.16;4373977;32;33135;-84
2021/11/17 06:34:34;;;;;;;;;;;;;;;8.05;65.00;100604.75;4409656;32;34301;-84
2021/11/17 06:37:03;;;;;;;;;;;;;;;8.45;63.96;100598.66;4395554;32;34112;-83
2021/11/17 06:39:31;;;;;;;;;;;;;;;8.58;63.60;100604.53;4390387;32;33121;-83
2021/11/17 06:41:59;;;;;;;;;;;;;;;8.70;63.18;100606.87;4392763;32;32285;-83
2021/11/17 06:44:26;;;;;;;;;;;;;;;8.57;63.83;100608.06;4392224;32;33070;-84
2021/11/17 06:46:54;;;;;;;;;;;;;;;8.79;63.11;100604.03;4392855;32;32835;-83
2021/11/17 06:49:21;;;;;;;;;;;;;;;8.51;64.17;100613.47;4384811;32;34689;-83
2021/11/17 06:51:49;;;;;;;;;;;;;;;8.39;64.49;100610.19;4392493;32;33544;-83
2021/11/17 06:54:17;;;;;;;;;;;;;;;8.74;63.09;100605.06;4390058;32;34207;-84
2021/11/17 06:56:44;;;;;;;;;;;;;;;8.83;62.95;100600.44;4390773;32;34980;-83
2021/11/17 06:59:11;;;;;;;;;;;;;;;9.04;62.84;100611.34;4392540;32;34508;-83
2021/11/17 07:01:39;;;;;;;;;;;;;;;9.05;62.25;100605.16;4392476;32;33508;-83
2021/11/17 07:04:07;;;;;;;;;;;;;;;9.21;61.76;100607.41;4378827;32;33252;-83
2021/11/17 07:06:36;;;;;;;;;;;;;;;9.03;61.92;100615.75;4392571;32;34122;-84
2021/11/17 07:09:04;;;;;;;;;;;;;;;8.85;62.68;100614.41;4392065;32;34233;-84
2021/11/17 07:11:40;;;;;;;;;;;;;;;8.67;63.43;100617.47;4390082;32;32901;-84
2021/11/17 07:14:09;;;;;;;;;;;;;;;8.80;62.97;100613.66;4389188;32;32521;-83
2021/11/17 07:16:38;;;;;;;;;;;;;;;8.57;63.94;100606.28;4390092;32;34481;-84
2021/11/17 07:19:07;;;;;;;;;;;;;;;8.99;62.55;100608.81;4390045;32;34514;-84
2021/11/17 07:21:41;;;;;;;;;;;;;;;8.56;63.33;100615.09;4383498;32;33429;-84
2021/11/17 07:24:11;;;;;;;;;;;;;;;8.78;63.20;100607.56;4390035;32;33690;-86
2021/11/17 07:26:38;;;;;;;;;;;;;;;8.92;62.79;100610.72;4390265;32;33835;-86
2021/11/17 07:29:05;;;;;;;;;;;;;;;9.10;62.01;100605.91;4395812;32;34116;-88
2021/11/17 07:31:36;;;;;;;;;;;;;;;9.11;61.87;100607.66;4380775;32;32299;-87
2021/11/17 07:34:04;;;;;;;;;;;;;;;8.93;62.54;100608.97;4380015;32;32567;-87
2021/11/17 07:36:41;;;;;;;;;;;;;;;8.77;63.07;100615.50;4393010;32;33773;-87
2021/11/17 07:39:13;;;;;;;;;;;;;;;8.62;63.81;100606.19;4389884;32;33362;-87
2021/11/17 07:41:45;;;;;;;;;;;;;;;8.87;63.16;100607.34;4402885;32;33036;-87
2021/11/17 07:44:16;;;;;;;;;;;;;;;8.96;63.00;100607.13;4402921;32;32639;-87
2021/11/17 07:46:45;;;;;;;;;;;;;;;9.17;62.34;100610.16;4402697;32;33564;-88
2021/11/17 07:49:13;;;;;;;;;;;;;;;8.92;62.91;100604.59;4402725;32;33715;-87
2021/11/17 07:51:40;;;;;;;;;;;;;;;8.69;63.84;100613.06;4389924;32;33308;-88
2021/11/17 07:54:08;;;;;;;;;;;;;;;8.87;63.29;100607.34;4389880;32;34315;-87
2021/11/17 07:56:36;;;;;;;;;;;;;;;9.47;61.31;100608.50;4402434;32;33026;-87
2021/11/17 07:59:04;;;;;;;;;;;;;;;9.35;61.88;100609.69;4402629;32;34160;-87
2021/11/17 08:01:31;;;;;;;;;;;;;;;9.04;63.21;100620.13;4415330;32;32089;-88
2021/11/17 08:03:59;;;;;;;;;;;;;;;9.38;62.15;100614.84;4402700;32;32914;-88
2021/11/17 08:06:27;;;;;;;;;;;;;;;9.67;60.67;100621.13;4415172;32;33456;-88
2021/11/17 08:09:03;;;;;;;;;;;;;;;9.37;61.83;100618.41;4389196;32;32632;-87
2021/11/17 08:11:31;;;;;;;;;;;;;;;9.46;61.94;100623.44;4402328;32;32881;-88
2021/11/17 08:13:58;;;;;;;;;;;;;;;9.75;60.35;100614.75;4389911;32;32413;-88
2021/11/17 08:20:27;;;;;;;;;;;;;;;9.88;60.21;100611.78;4378925;32;35033;-88
2021/11/17 08:22:58;;;;;;;;;;;;;;;9.36;61.02;100616.69;4402358;32;31938;-88
2021/11/17 08:25:26;;;;;;;;;;;;;;;8.82;63.40;100624.16;4402079;32;34175;-88
2021/11/17 08:27:53;;;;;;;;;;;;;;;9.11;62.73;100624.31;4415022;32;33040;-88
2021/11/17 08:30:25;;;;;;;;;;;;;;;9.47;61.90;100617.25;4402149;32;33063;-88
2021/11/17 08:36:55;;;;;;;;;;;;;;;9.88;60.44;100619.69;4378826;32;34957;-88
2021/11/17 08:39:24;;;;;;;;;;;;;;;10.18;59.60;100615.31;4401536;32;32926;-88
2021/11/17 08:41:51;;;;;;;;;;;;;;;10.16;59.31;100620.66;4404886;32;34842;-88
2021/11/17 08:44:19;;;;;;;;;;;;;;;9.46;61.37;100628.72;4404412;32;31916;-88
2021/11/17 08:46:52;;;;;;;;;;;;;;;9.83;61.14;100622.47;4404089;32;33249;-89
2021/11/17 08:49:19;;;;;;;;;;;;;;;10.24;58.91;100617.81;4391781;32;32777;-89
2021/11/17 08:51:47;;;;;;;;;;;;;;;9.72;61.02;100630.66;4391912;32;33104;-88
2021/11/17 08:54:16;;;;;;;;;;;;;;;10.00;60.69;100621.97;4391622;32;32139;-88
2021/11/17 08:56:44;;;;;;;;;;;;;;;10.05;61.11;100627.13;4404489;32;33001;-88
2021/11/17 08:59:11;;;;;;;;;;;;;;;10.25;59.94;100620.41;4391715;32;33286;-88
2021/11/17 09:01:39;;;;;;;;;;;;;;;10.22;59.39;100619.59;4390964;32;32918;-89
2021/11/17 09:04:18;;;;;;;;;;;;;;;10.22;59.30;100619.59;4403107;32;32282;-88
2021/11/17 09:06:46;;;;;;;;;;;;;;;10.39;58.58;100624.41;4417033;32;34535;-88
2021/11/17 09:09:14;;;;;;;;;;;;;;;10.81;57.05;100619.59;4404210;32;34029;-88
2021/11/17 09:11:41;;;;;;;;;;;;;;;10.94;57.13;100626.22;4404299;32;32505;-88
2021/11/17 09:14:09;;;;;;;;;;;;;;;10.71;57.92;100626.06;4391586;32;32187;-88
2021/11/17 09:16:39;;;;;;;;;;;;;;;10.95;56.11;100624.44;4391605;32;33347;-89
2021/11/17 09:19:07;;;;;;;;;;;;;;;10.97;56.35;100625.25;4404364;32;33494;-87
2021/11/17 09:21:36;;;;;;;;;;;;;;;11.32;55.85;100623.22;4391414;32;33928;-88
2021/11/17 09:24:05;;;;;;;;;;;;;;;10.87;57.68;100627.34;4404443;32;32089;-89
2021/11/17 09:26:32;;;;;;;;;;;;;;;11.16;55.32;100622.88;4391570;32;33931;-88
2021/11/17 09:29:01;;;;;;;;;;;;;;;11.10;56.38;100617.78;4391475;32;32727;-88
2021/11/17 09:31:34;;;;;;;;;;;;;;;11.39;55.84;100604.44;4393575;32;33410;-88
2021/11/17 09:34:02;;;;;;;;;;;;;;;11.22;56.21;100609.47;4406514;32;33941;-89
2021/11/17 09:36:44;;;;;;;;;;;;;;;;;;;;;
2021/11/17 09:43:20;;;;;;;;;;;;;;;11.78;53.26;100596.91;4380151;32;34979;-90
2021/11/17 09:45:48;;;;;;;;;;;;;;;10.93;56.20;100600.72;4391513;32;32168;-89
2021/11/17 09:48:17;;;;;;;;;;;;;;;11.62;54.37;100593.06;4366399;32;33376;-88
2021/11/17 09:50:47;;;;;;;;;;;;;;;11.58;53.18;100590.59;4378805;32;34983;-89
2021/11/17 09:53:18;;;;;;;;;;;;;;;12.10;51.09;100583.44;4391379;32;34074;-89
2021/11/17 09:55:48;;;;;;;;;;;;;;;11.92;54.10;100583.22;4391540;32;32343;-89
2021/11/17 09:58:17;;;;;;;;;;;;;;;11.68;53.16;100581.41;4391563;32;32910;-89
2021/11/17 10:04:50;;;;;;;;;;;;;;;12.45;51.20;100575.03;4380167;32;34906;-89
2021/11/17 10:13:04;;;;;;;;;;;;;;;11.80;52.30;100571.25;4391098;32;34253;-89
2021/11/17 10:15:34;;;;;;;;;;;;;;;12.21;50.61;100563.59;4378712;32;32906;-89
2021/11/17 10:18:22;;;;;;;;;;;;;;;11.95;52.60;100553.97;4391183;32;32195;-89
2021/11/17 10:20:57;;;;;;;;;;;;;;;12.27;51.64;100554.53;4403443;32;33127;-91
2021/11/17 10:23:26;;;;;;;;;;;;;;;12.44;50.75;100554.75;4391037;32;33422;-90
2021/11/17 10:26:03;;;;;;;;;;;;;;;11.95;52.56;100553.97;4378328;32;32727;-89
2021/11/17 10:28:41;;;;;;;;;;;;;;;12.13;51.87;100557.72;4366041;32;32999;-89
2021/11/17 10:31:15;;;;;;;;;;;;;;;11.53;54.02;100557.22;4378568;32;33155;-89
2021/11/17 10:34:05;;;;;;;;;;;;;;;11.97;52.74;100554.78;4391146;32;35004;-89
2021/11/17 10:36:38;;;;;;;;;;;;;;;11.90;53.08;100545.34;4403950;32;33397;-90
2021/11/17 10:39:09;;;;;;;;;;;;;;;12.25;51.79;100543.16;4378257;32;33482;-88
2021/11/17 10:45:50;;;;;;;;;;;;;;;11.88;53.48;100539.25;4379585;32;35158;-89
2021/11/17 10:48:18;;;;;;;;;;;;;;;11.51;54.18;100537.91;4390927;32;33824;-88
2021/11/17 10:50:45;;;;;;;;;;;;;;;11.80;52.60;100528.91;4390588;32;32878;-88
2021/11/17 10:53:14;;;;;;;;;;;;;;;12.03;52.21;100535.16;4403525;32;32588;-89
2021/11/17 10:55:46;;;;;;;;;;;;;;;12.00;51.40;100530.84;4378980;32;33668;-88
2021/11/17 10:58:23;;;;;;;;;;;;;;;11.58;53.18;100542.97;4395856;32;32993;-95
2021/11/17 11:01:26;;;;;;;;;;;;;;;11.64;53.66;100548.06;4401434;32;31988;-94
2021/11/17 11:04:18;;;;;;;;;;;;;;;12.12;52.43;100532.19;4399612;32;32929;-93
2021/11/17 11:07:24;;;;;;;;;;;;;;;12.36;51.71;100529.50;4373951;32;34857;-95
2021/11/17 11:10:07;;;;;;;;;;;;;;;12.87;49.24;100528.31;4398889;32;32599;-92
2021/11/17 11:13:04;;;;;;;;;;;;;;;12.93;50.42;100533.34;4397855;32;34640;-94
2021/11/17 11:15:45;;;;;;;;;;;;;;;12.79;50.62;100532.13;4370095;32;32958;-94
2021/11/17 11:18:44;;;;;;;;;;;;;;;12.97;49.92;100522.56;4388726;32;19999;-94
2021/11/17 11:21:41;;;;;;;;;;;;;;;13.47;49.03;100513.38;4393024;32;34716;-91
2021/11/17 11:24:29;;;;;;;;;;;;;;;13.53;48.22;100513.97;4391439;32;31627;-93
2021/11/17 11:27:33;;;;;;;;;;;;;;;13.23;49.03;100512.66;4334432;33;32976;-95
2021/11/17 11:30:20;;;;;;;;;;;;;;;13.21;48.70;100509.19;4390665;32;33280;-96
2021/11/17 11:33:24;;;;;;;;;;;;;;;13.14;49.23;100515.66;4393356;32;34850;-96
2021/11/17 11:36:10;;;;;;;;;;;;;;;13.33;48.60;100516.62;4397768;32;32670;-95
2021/11/17 11:39:05;;;;;;;;;;;;;;;12.77;49.47;100512.81;4382834;32;35584;-96
2021/11/17 11:42:04;;;;;;;;;;;;;;;12.64;50.26;100522.16;4425566;32;33158;-96
2021/11/17 11:44:58;;;;;;;;;;;;;;;12.85;49.86;100525.72;4421977;32;35063;-95
2021/11/17 11:48:00;;;;;;;;;;;;;;;13.08;49.04;100522.97;4418236;32;33381;-94
2021/11/17 11:50:58;;;;;;;;;;;;;;;12.48;49.95;100513.97;4367032;32;32798;-94
2021/11/17 11:53:56;;;;;;;;;;;;;;;13.12;49.32;100512.22;4407442;32;32874;-95
2021/11/17 11:56:48;;;;;;;;;;;;;;;12.61;50.31;100510.81;4421506;32;34191;-94
2021/11/17 11:59:41;;;;;;;;;;;;;;;12.82;49.53;100516.13;4391168;32;33991;-95
2021/11/17 12:02:23;;;;;;;;;;;;;;;12.73;50.00;100502.38;4399744;32;33302;-95
2021/11/17 12:05:33;;;;;;;;;;;;;;;12.52;50.72;100502.31;4398563;32;34692;-94
2021/11/17 12:08:19;;;;;;;;;;;;;;;13.33;48.62;100496.28;4393314;32;34755;-96
2021/11/17 12:11:14;;;;;;;;;;;;;;;13.61;46.81;100497.69;4401531;32;32072;-96
2021/11/17 12:14:11;;;;;;;;;;;;;;;13.27;47.92;100495.69;4393455;32;33164;-94
2021/11/17 12:17:07;;;;;;;;;;;;;;;13.11;48.31;100495.47;4412519;32;35676;-95
2021/11/17 12:19:51;;;;;;;;;;;;;;;13.24;47.93;100482.56;4391256;32;33178;-96
2021/11/17 12:22:32;;;;;;;;;;;;;;;12.84;48.44;100471.00;4379437;32;32390;-94
2021/11/17 12:25:32;;;;;;;;;;;;;;;12.74;49.67;100478.47;4408494;32;34776;-95
2021/11/17 12:28:14;;;;;;;;;;;;;;;12.66;49.86;100471.75;4363313;32;33068;-95
2021/11/17 12:31:10;;;;;;;;;;;;;;;12.67;49.51;100474.34;4380401;32;33092;-92
2021/11/17 12:33:52;;;;;;;;;;;;;;;12.46;49.68;100476.09;4378203;32;32337;-94
2021/11/17 12:37:15;;;;;;;;;;;;;;;12.24;50.46;100472.56;4389988;32;32912;-93
2021/11/17 12:39:56;;;;;;;;;;;;;;;12.21;50.89;100468.28;4377254;32;32961;-92
2021/11/17 12:42:52;;;;;;;;;;;;;;;12.33;50.13;100463.41;4352786;32;31883;-92
2021/11/17 12:45:49;;;;;;;;;;;;;;;12.17;51.27;100460.53;4364901;32;32364;-92
2021/11/17 12:49:03;;;;;;;;;;;;;;;12.37;50.37;100457.91;4382148;32;31909;-91
2021/11/17 12:52:02;;;;;;;;;;;;;;;12.34;50.54;100454.53;4406219;32;34186;-93
2021/11/17 12:54:57;;;;;;;;;;;;;;;12.13;50.78;100456.25;4397255;32;34099;-94
2021/11/17 12:57:37;;;;;;;;;;;;;;;12.02;52.01;100464.63;4410583;32;32131;-93
2021/11/17 13:00:35;;;;;;;;;;;;;;;12.19;52.49;100461.31;4365315;32;28614;-93
2021/11/17 13:03:26;;;;;;;;;;;;;;;12.36;50.59;100448.25;4395882;32;33237;-91
2021/11/17 13:06:17;;;;;;;;;;;;;;;12.85;49.28;100455.94;4397483;32;32925;-93
2021/11/17 13:09:09;;;;;;;;;;;;;;;12.60;50.35;100461.41;4396742;32;32910;-90
2021/11/17 13:11:46;;;;;;;;;;;;;;;12.58;50.73;100458.84;4396863;32;33043;-89
2021/11/17 13:14:34;;;;;;;;;;;;;;;12.45;51.05;100458.47;4409387;32;33073;-90
2021/11/17 13:17:02;;;;;;;;;;;;;;;12.66;49.86;100450.56;4396784;32;33241;-90
2021/11/17 13:19:34;;;;;;;;;;;;;;;12.76;49.49;100446.59;4396860;32;31772;-90
2021/11/17 13:22:25;;;;;;;;;;;;;;;13.10;48.80;100439.84;4410048;32;33431;-92
2021/11/17 13:25:26;;;;;;;;;;;;;;;13.13;48.37;100442.38;4383111;32;33278;-91
2021/11/17 13:28:52;;;;;;;;;;;;;;;12.78;49.26;100440.31;4398231;32;32592;-90
2021/11/17 13:31:33;;;;;;;;;;;;;;;12.70;49.87;100439.78;4403274;32;31691;-90
2021/11/17 13:34:28;;;;;;;;;;;;;;;13.06;48.75;100444.44;4362525;32;33254;-89
2021/11/17 13:37:14;;;;;;;;;;;;;;;12.48;50.26;100431.84;4363339;32;33059;-88
2021/11/17 13:39:42;;;;;;;;;;;;;;;12.53;51.12;100435.19;4361233;32;32900;-89
2021/11/17 13:42:12;;;;;;;;;;;;;;;12.64;50.80;100432.09;4363848;32;31856;-89
2021/11/17 13:44:40;;;;;;;;;;;;;;;12.53;50.80;100432.53;4351534;32;34585;-89
2021/11/17 13:47:22;;;;;;;;;;;;;;;12.47;51.20;100430.13;4363734;32;34440;-89
2021/11/17 13:49:52;;;;;;;;;;;;;;;12.71;50.88;100440.63;4374442;32;33421;-89
2021/11/17 13:52:23;;;;;;;;;;;;;;;13.03;50.01;100445.41;4371266;32;32658;-89
2021/11/17 13:54:52;;;;;;;;;;;;;;;13.19;49.74;100439.44;4376098;32;33284;-88
2021/11/17 13:57:20;;;;;;;;;;;;;;;13.20;49.10;100441.19;4371196;32;34159;-88
2021/11/17 13:59:47;;;;;;;;;;;;;;;13.27;49.79;100447.94;4361231;32;33003;-87
2021/11/17 14:02:15;;;;;;;;;;;;;;;13.31;49.19;100445.09;4370291;32;32021;-87
2021/11/17 14:04:43;;;;;;;;;;;;;;;13.43;48.67;100438.38;4375847;32;33391;-88
2021/11/17 14:07:15;;;;;;;;;;;;;;;13.19;49.05;100442.09;4343090;33;32709;-88
2021/11/17 14:09:43;;;;;;;;;;;;;;;13.09;49.65;100446.94;4360820;32;32611;-88
2021/11/17 14:12:10;;;;;;;;;;;;;;;13.41;48.84;100442.88;4369818;32;32346;-88
2021/11/17 14:18:41;;;;;;;;;;;;;;;13.33;48.77;100445.00;4366380;32;35060;-89
2021/11/17 14:21:32;;;;;;;;;;;;;;;13.23;49.66;100435.75;4350787;32;33507;-89
2021/11/17 14:24:11;;;;;;;;;;;;;;;13.17;50.51;100436.00;4393515;32;33001;-89
2021/11/17 14:27:05;;;;;;;;;;;;;;;13.00;50.30;100448.19;4423679;32;33359;-88
2021/11/17 14:29:58;;;;;;;;;;;;;;;12.94;50.64;100450.25;4416720;32;33072;-91
2021/11/17 14:36:52;;;;;;;;;;;;;;;12.59;52.07;100438.50;4395794;32;34154;-91
2021/11/17 14:39:36;;;;;;;;;;;;;;;12.85;51.31;100438.25;4385827;32;33488;-89
2021/11/17 14:43:32;;;;;;;;;;;;;;;12.53;51.54;100443.16;4362263;32;35273;-89
2021/11/17 14:46:26;;;;;;;;;;;;;;;12.16;52.75;100456.16;4362062;32;32667;-92
2021/11/17 14:48:53;;;;;;;;;;;;;;;12.36;52.34;100458.84;4351144;32;33473;-92
2021/11/17 14:51:45;;;;;;;;;;;;;;;12.46;52.38;100459.34;4329743;33;32950;-91
2021/11/17 14:54:26;;;;;;;;;;;;;;;12.51;52.31;100462.66;4346674;33;33097;-91
2021/11/17 14:57:06;;;;;;;;;;;;;;;12.34;52.53;100460.69;4372246;32;32894;-90
2021/11/17 15:04:11;;;;;;;;;;;;;;;12.70;52.08;100466.28;4367804;32;32644;-91
2021/11/17 15:06:50;;;;;;;;;;;;;;;12.51;52.89;100468.81;4402797;32;32978;-90
2021/11/17 15:09:44;;;;;;;;;;;;;;;12.87;51.91;100473.53;4376292;32;34691;-91
2021/11/17 15:12:31;;;;;;;;;;;;;;;13.04;51.96;100468.34;4376634;32;32271;-91
2021/11/17 15:15:26;;;;;;;;;;;;;;;13.00;52.28;100472.03;4372151;32;32461;-91
2021/11/17 15:18:06;;;;;;;;;;;;;;;13.05;52.45;100474.50;4384318;32;33207;-90
2021/11/17 15:21:13;;;;;;;;;;;;;;;12.98;52.85;100473.06;4377559;32;32848;-90
2021/11/17 15:24:00;;;;;;;;;;;;;;;13.05;52.69;100466.53;4368571;32;31926;-91
2021/11/17 15:26:47;;;;;;;;;;;;;;;13.10;52.83;100471.66;4396774;32;32693;-92
2021/11/17 15:29:37;;;;;;;;;;;;;;;13.02;53.06;100464.91;4423683;32;34896;-91
2021/11/17 15:32:37;;;;;;;;;;;;;;;13.00;53.37;100463.22;4407004;32;32992;-90
2021/11/17 15:35:22;;;;;;;;;;;;;;;12.77;54.01;100470.41;4362787;32;32389;-90
2021/11/17 15:38:25;;;;;;;;;;;;;;;12.89;53.72;100479.59;4365139;32;33042;-90
2021/11/17 15:41:06;;;;;;;;;;;;;;;12.80;54.06;100478.19;4395160;32;33310;-90
2021/11/17 15:44:04;;;;;;;;;;;;;;;12.91;53.66;100483.03;4394823;32;33784;-89
2021/11/17 15:46:58;;;;;;;;;;;;;;;13.00;53.49;100495.03;4408892;32;32101;-91
2021/11/17 15:49:46;;;;;;;;;;;;;;;12.95;53.76;100497.87;4389364;32;34331;-91
2021/11/17 15:52:27;;;;;;;;;;;;;;;12.87;54.55;100501.81;4364833;32;32699;-91
2021/11/17 15:55:12;;;;;;;;;;;;;;;12.81;54.66;100493.16;4388200;32;33244;-91
2021/11/17 15:57:58;;;;;;;;;;;;;;;12.85;54.37;100491.25;4407415;32;32721;-91
2021/11/17 16:00:57;;;;;;;;;;;;;;;12.87;54.29;100492.06;4385204;32;32359;-91
2021/11/17 16:04:00;;;;;;;;;;;;;;;12.98;53.88;100492.47;4378918;32;33510;-91
2021/11/17 16:06:50;;;;;;;;;;;;;;;12.80;54.55;100498.53;4394698;32;33304;-91
2021/11/17 16:09:42;;;;;;;;;;;;;;;12.78;54.40;100503.91;4409467;32;32657;-90
2021/11/17 16:12:22;;;;;;;;;;;;;;;12.68;54.79;100505.22;4418513;32;33973;-90
2021/11/17 16:19:37;;;;;;;;;;;;;;;12.69;55.13;100504.28;4377245;32;33507;-90
2021/11/17 16:22:35;;;;;;;;;;;;;;;12.63;55.37;100496.59;4357752;32;32160;-89
2021/11/17 16:28:25;;;;;;;;;;;;;;;12.43;55.99;100502.69;4407228;32;32866;-89
2021/11/17 16:30:56;;;;;;;;;;;;;;;12.51;55.50;100497.94;4410107;32;32444;-88
2021/11/17 16:33:29;;;;;;;;;;;;;;;12.53;55.44;100501.41;4398114;32;32989;-89
2021/11/17 16:36:17;;;;;;;;;;;;;;;12.55;55.53;100502.22;4412770;32;34377;-89
2021/11/17 16:39:05;;;;;;;;;;;;;;;12.35;55.89;100504.81;4399195;32;34255;-89
2021/11/17 16:41:33;;;;;;;;;;;;;;;12.33;56.11;100500.47;4410588;32;32656;-89
2021/11/17 16:44:01;;;;;;;;;;;;;;;12.47;55.84;100499.00;4398114;32;34162;-89
2021/11/17 16:46:43;;;;;;;;;;;;;;;12.53;55.69;100505.81;4399190;32;33975;-89
2021/11/17 16:49:30;;;;;;;;;;;;;;;12.52;55.79;100502.31;4410330;32;33046;-89
2021/11/17 16:52:21;;;;;;;;;;;;;;;12.60;55.55;100499.38;4402436;32;32901;-89
2021/11/17 16:54:55;;;;;;;;;;;;;;;12.61;55.46;100500.22;4422496;32;33220;-89
2021/11/17 16:57:31;;;;;;;;;;;;;;;12.47;55.77;100504.28;4422937;32;32768;-89
2021/11/17 17:01:15;;;;;;;;;;;;;;;12.51;55.75;100505.91;4383234;32;35842;-89